sensor_id;sensor_type;location;lat;lon;timestamp;P1;durP1;ratioP1;P2;durP2;ratioP2
16878;SDS011;8556;52.218;9.884;2023-10-31T00:00:42;2.67;;;2.10;;
16878;SDS011;8556;52.218;9.884;2023-10-31T00:03:09;6.77;;;2.67;;
16878;SDS011;8556;52.218;9.884;2023-10-31T00:05:36;4.47;;;2.37;;
16878;SDS011;8556;52.218;9.884;2023-10-31T00:08:03;4.13;;;2.50;;
16878;SDS011;8556;52.218;9.884;2023-10-31T00:10:32;3.03;;;2.63;;
16878;SDS011;8556;52.218;9.884;2023-10-31T00:12:58;3.53;;;2.30;;
16878;SDS011;8556;52.218;9.884;2023-10-31T00:15:25;2.33;;;2.13;;
16878;SDS011;8556;52.218;9.884;2023-10-31T00:17:54;2.40;;;2.20;;
16878;SDS011;8556;52.218;9.884;2023-10-31T00:20:21;6.30;;;2.87;;
16878;SDS011;8556;52.218;9.884;2023-10-31T00:22:47;5.00;;;2.40;;
16878;SDS011;8556;52.218;9.884;2023-10-31T00:25:14;4.10;;;2.50;;
16878;SDS011;8556;52.218;9.884;2023-10-31T00:27:42;3.20;;;2.10;;
16878;SDS011;8556;52.218;9.884;2023-10-31T00:30:09;2.63;;;2.43;;
16878;SDS011;8556;52.218;9.884;2023-10-31T00:32:36;3.07;;;2.13;;
16878;SDS011;8556;52.218;9.884;2023-10-31T00:35:03;4.60;;;2.47;;
16878;SDS011;8556;52.218;9.884;2023-10-31T00:37:30;3.00;;;2.30;;
16878;SDS011;8556;52.218;9.884;2023-10-31T00:39:57;2.37;;;2.17;;
16878;SDS011;8556;52.218;9.884;2023-10-31T00:42:24;4.17;;;2.30;;
16878;SDS011;8556;52.218;9.884;2023-10-31T00:44:52;5.53;;;2.30;;
16878;SDS011;8556;52.218;9.884;2023-10-31T00:47:19;4.10;;;2.67;;
16878;SDS011;8556;52.218;9.884;2023-10-31T00:49:46;4.07;;;2.67;;
16878;SDS011;8556;52.218;9.884;2023-10-31T00:52:12;4.30;;;2.50;;
16878;SDS011;8556;52.218;9.884;2023-10-31T00:54:39;2.67;;;2.30;;
16878;SDS011;8556;52.218;9.884;2023-10-31T00:57:07;3.17;;;2.40;;
16878;SDS011;8556;52.218;9.884;2023-10-31T00:59:33;3.97;;;2.53;;
16878;SDS011;8556;52.218;9.884;2023-10-31T01:02:02;3.97;;;2.73;;
16878;SDS011;8556;52.218;9.884;2023-10-31T01:04:28;3.40;;;2.63;;
16878;SDS011;8556;52.218;9.884;2023-10-31T01:06:56;3.23;;;2.30;;
16878;SDS011;8556;52.218;9.884;2023-10-31T01:09:23;4.50;;;2.57;;
16878;SDS011;8556;52.218;9.884;2023-10-31T01:11:50;3.75;;;2.92;;
16878;SDS011;8556;52.218;9.884;2023-10-31T01:14:17;2.75;;;2.33;;
16878;SDS011;8556;52.218;9.884;2023-10-31T01:16:43;3.40;;;2.90;;
16878;SDS011;8556;52.218;9.884;2023-10-31T01:19:11;3.00;;;2.70;;
16878;SDS011;8556;52.218;9.884;2023-10-31T01:21:38;4.50;;;3.20;;
16878;SDS011;8556;52.218;9.884;2023-10-31T01:24:05;3.90;;;2.40;;
16878;SDS011;8556;52.218;9.884;2023-10-31T01:26:33;3.97;;;3.00;;
16878;SDS011;8556;52.218;9.884;2023-10-31T01:29:00;6.33;;;3.47;;
16878;SDS011;8556;52.218;9.884;2023-10-31T01:31:27;3.73;;;2.70;;
16878;SDS011;8556;52.218;9.884;2023-10-31T01:33:54;3.78;;;3.08;;
16878;SDS011;8556;52.218;9.884;2023-10-31T01:36:25;8.00;;;3.20;;
16878;SDS011;8556;52.218;9.884;2023-10-31T01:38:52;3.53;;;3.00;;
16878;SDS011;8556;52.218;9.884;2023-10-31T01:41:19;3.67;;;3.23;;
16878;SDS011;8556;52.218;9.884;2023-10-31T01:43:45;4.10;;;3.03;;
16878;SDS011;8556;52.218;9.884;2023-10-31T01:46:12;4.33;;;3.00;;
16878;SDS011;8556;52.218;9.884;2023-10-31T01:48:39;6.87;;;3.27;;
16878;SDS011;8556;52.218;9.884;2023-10-31T01:51:06;5.53;;;3.53;;
16878;SDS011;8556;52.218;9.884;2023-10-31T01:53:35;4.93;;;3.57;;
16878;SDS011;8556;52.218;9.884;2023-10-31T01:56:03;3.20;;;2.90;;
16878;SDS011;8556;52.218;9.884;2023-10-31T01:58:31;6.50;;;3.83;;
16878;SDS011;8556;52.218;9.884;2023-10-31T02:01:00;3.23;;;2.90;;
16878;SDS011;8556;52.218;9.884;2023-10-31T02:03:28;3.67;;;3.00;;
16878;SDS011;8556;52.218;9.884;2023-10-31T02:05:55;4.37;;;2.77;;
16878;SDS011;8556;52.218;9.884;2023-10-31T02:08:23;3.77;;;3.00;;
16878;SDS011;8556;52.218;9.884;2023-10-31T02:10:52;3.30;;;3.05;;
16878;SDS011;8556;52.218;9.884;2023-10-31T02:13:19;3.50;;;3.00;;
16878;SDS011;8556;52.218;9.884;2023-10-31T02:15:46;3.30;;;2.93;;
16878;SDS011;8556;52.218;9.884;2023-10-31T02:18:12;3.90;;;2.80;;
16878;SDS011;8556;52.218;9.884;2023-10-31T02:20:39;7.78;;;2.75;;
16878;SDS011;8556;52.218;9.884;2023-10-31T02:23:07;4.60;;;2.93;;
16878;SDS011;8556;52.218;9.884;2023-10-31T02:25:34;4.03;;;2.60;;
16878;SDS011;8556;52.218;9.884;2023-10-31T02:28:01;4.33;;;2.67;;
16878;SDS011;8556;52.218;9.884;2023-10-31T02:30:28;3.13;;;2.63;;
16878;SDS011;8556;52.218;9.884;2023-10-31T02:32:55;2.77;;;2.57;;
16878;SDS011;8556;52.218;9.884;2023-10-31T02:35:21;3.63;;;2.73;;
16878;SDS011;8556;52.218;9.884;2023-10-31T02:37:48;3.43;;;3.00;;
16878;SDS011;8556;52.218;9.884;2023-10-31T02:40:16;4.60;;;3.03;;
16878;SDS011;8556;52.218;9.884;2023-10-31T02:42:43;3.70;;;2.97;;
16878;SDS011;8556;52.218;9.884;2023-10-31T02:45:10;3.63;;;3.33;;
16878;SDS011;8556;52.218;9.884;2023-10-31T02:47:37;3.10;;;2.63;;
16878;SDS011;8556;52.218;9.884;2023-10-31T02:50:05;4.83;;;2.83;;
16878;SDS011;8556;52.218;9.884;2023-10-31T02:52:32;3.63;;;3.00;;
16878;SDS011;8556;52.218;9.884;2023-10-31T02:54:59;2.80;;;2.60;;
16878;SDS011;8556;52.218;9.884;2023-10-31T02:57:27;3.37;;;2.90;;
16878;SDS011;8556;52.218;9.884;2023-10-31T02:59:54;2.80;;;2.60;;
16878;SDS011;8556;52.218;9.884;2023-10-31T03:02:21;5.13;;;3.17;;
16878;SDS011;8556;52.218;9.884;2023-10-31T03:04:48;3.27;;;2.87;;
16878;SDS011;8556;52.218;9.884;2023-10-31T03:07:15;3.60;;;3.07;;
16878;SDS011;8556;52.218;9.884;2023-10-31T03:09:41;3.80;;;3.10;;
16878;SDS011;8556;52.218;9.884;2023-10-31T03:12:08;5.87;;;3.10;;
16878;SDS011;8556;52.218;9.884;2023-10-31T03:14:36;4.23;;;2.90;;
16878;SDS011;8556;52.218;9.884;2023-10-31T03:17:03;4.23;;;3.50;;
16878;SDS011;8556;52.218;9.884;2023-10-31T03:19:30;4.23;;;2.90;;
16878;SDS011;8556;52.218;9.884;2023-10-31T03:21:57;5.37;;;3.10;;
16878;SDS011;8556;52.218;9.884;2023-10-31T03:24:24;3.13;;;2.83;;
16878;SDS011;8556;52.218;9.884;2023-10-31T03:26:50;5.27;;;3.73;;
16878;SDS011;8556;52.218;9.884;2023-10-31T03:29:17;3.33;;;3.03;;
16878;SDS011;8556;52.218;9.884;2023-10-31T03:31:45;2.57;;;2.37;;
16878;SDS011;8556;52.218;9.884;2023-10-31T03:34:12;2.67;;;2.47;;
16878;SDS011;8556;52.218;9.884;2023-10-31T03:36:39;3.53;;;3.07;;
16878;SDS011;8556;52.218;9.884;2023-10-31T03:39:06;3.57;;;3.27;;
16878;SDS011;8556;52.218;9.884;2023-10-31T03:41:32;2.77;;;2.57;;
16878;SDS011;8556;52.218;9.884;2023-10-31T03:43:59;3.80;;;3.50;;
16878;SDS011;8556;52.218;9.884;2023-10-31T03:46:26;4.23;;;3.87;;
16878;SDS011;8556;52.218;9.884;2023-10-31T03:48:54;4.43;;;4.03;;
16878;SDS011;8556;52.218;9.884;2023-10-31T03:51:21;4.93;;;4.53;;
16878;SDS011;8556;52.218;9.884;2023-10-31T03:53:47;4.30;;;3.97;;
16878;SDS011;8556;52.218;9.884;2023-10-31T03:56:14;4.93;;;4.40;;
16878;SDS011;8556;52.218;9.884;2023-10-31T03:58:42;4.90;;;4.40;;
16878;SDS011;8556;52.218;9.884;2023-10-31T04:01:09;4.60;;;4.20;;
16878;SDS011;8556;52.218;9.884;2023-10-31T04:03:36;4.20;;;3.80;;
16878;SDS011;8556;52.218;9.884;2023-10-31T04:06:04;4.20;;;3.80;;
16878;SDS011;8556;52.218;9.884;2023-10-31T04:08:31;4.20;;;3.83;;
16878;SDS011;8556;52.218;9.884;2023-10-31T04:10:58;4.30;;;3.90;;
16878;SDS011;8556;52.218;9.884;2023-10-31T04:13:25;3.30;;;3.10;;
16878;SDS011;8556;52.218;9.884;2023-10-31T04:15:51;3.13;;;2.83;;
16878;SDS011;8556;52.218;9.884;2023-10-31T04:18:18;2.93;;;2.50;;
16878;SDS011;8556;52.218;9.884;2023-10-31T04:20:45;5.07;;;2.20;;
16878;SDS011;8556;52.218;9.884;2023-10-31T04:23:13;2.03;;;1.93;;
16878;SDS011;8556;52.218;9.884;2023-10-31T04:25:40;1.90;;;1.80;;
16878;SDS011;8556;52.218;9.884;2023-10-31T04:28:07;2.37;;;2.20;;
16878;SDS011;8556;52.218;9.884;2023-10-31T04:30:33;2.60;;;2.40;;
16878;SDS011;8556;52.218;9.884;2023-10-31T04:33:00;2.60;;;2.40;;
16878;SDS011;8556;52.218;9.884;2023-10-31T04:35:27;2.37;;;2.17;;
16878;SDS011;8556;52.218;9.884;2023-10-31T04:37:54;2.53;;;2.33;;
16878;SDS011;8556;52.218;9.884;2023-10-31T04:40:23;2.40;;;2.20;;
16878;SDS011;8556;52.218;9.884;2023-10-31T04:42:49;1.67;;;1.57;;
16878;SDS011;8556;52.218;9.884;2023-10-31T04:45:16;1.60;;;1.50;;
16878;SDS011;8556;52.218;9.884;2023-10-31T04:47:43;1.60;;;1.50;;
16878;SDS011;8556;52.218;9.884;2023-10-31T04:50:10;1.30;;;1.20;;
16878;SDS011;8556;52.218;9.884;2023-10-31T04:52:36;1.37;;;1.27;;
16878;SDS011;8556;52.218;9.884;2023-10-31T04:55:04;1.93;;;1.10;;
16878;SDS011;8556;52.218;9.884;2023-10-31T04:57:32;2.17;;;1.00;;
16878;SDS011;8556;52.218;9.884;2023-10-31T04:59:59;1.37;;;1.03;;
16878;SDS011;8556;52.218;9.884;2023-10-31T05:02:26;1.13;;;0.87;;
16878;SDS011;8556;52.218;9.884;2023-10-31T05:04:53;0.77;;;0.77;;
16878;SDS011;8556;52.218;9.884;2023-10-31T05:07:20;1.97;;;1.40;;
16878;SDS011;8556;52.218;9.884;2023-10-31T05:09:47;1.40;;;1.30;;
16878;SDS011;8556;52.218;9.884;2023-10-31T05:12:14;0.30;;;0.30;;
16878;SDS011;8556;52.218;9.884;2023-10-31T05:14:42;2.17;;;0.30;;
16878;SDS011;8556;52.218;9.884;2023-10-31T05:17:09;0.30;;;0.30;;
16878;SDS011;8556;52.218;9.884;2023-10-31T05:19:35;0.30;;;0.30;;
16878;SDS011;8556;52.218;9.884;2023-10-31T05:22:02;0.30;;;0.30;;
16878;SDS011;8556;52.218;9.884;2023-10-31T05:24:29;0.60;;;0.60;;
16878;SDS011;8556;52.218;9.884;2023-10-31T05:26:57;0.73;;;0.60;;
16878;SDS011;8556;52.218;9.884;2023-10-31T05:29:24;1.23;;;0.40;;
16878;SDS011;8556;52.218;9.884;2023-10-31T05:31:52;1.27;;;0.30;;
16878;SDS011;8556;52.218;9.884;2023-10-31T05:34:19;2.07;;;0.40;;
16878;SDS011;8556;52.218;9.884;2023-10-31T05:36:45;1.07;;;0.40;;
16878;SDS011;8556;52.218;9.884;2023-10-31T05:39:12;0.40;;;0.40;;
16878;SDS011;8556;52.218;9.884;2023-10-31T05:41:40;0.67;;;0.67;;
16878;SDS011;8556;52.218;9.884;2023-10-31T05:44:07;1.13;;;0.70;;
16878;SDS011;8556;52.218;9.884;2023-10-31T05:46:37;2.00;;;0.80;;
16878;SDS011;8556;52.218;9.884;2023-10-31T05:49:05;0.93;;;0.87;;
16878;SDS011;8556;52.218;9.884;2023-10-31T05:51:33;1.10;;;0.80;;
16878;SDS011;8556;52.218;9.884;2023-10-31T05:54:00;0.90;;;0.90;;
16878;SDS011;8556;52.218;9.884;2023-10-31T05:56:28;1.60;;;0.93;;
16878;SDS011;8556;52.218;9.884;2023-10-31T05:58:54;2.30;;;1.03;;
16878;SDS011;8556;52.218;9.884;2023-10-31T06:01:21;2.37;;;1.03;;
16878;SDS011;8556;52.218;9.884;2023-10-31T06:03:48;0.83;;;0.73;;
16878;SDS011;8556;52.218;9.884;2023-10-31T06:06:16;1.73;;;1.10;;
16878;SDS011;8556;52.218;9.884;2023-10-31T06:08:43;1.17;;;0.87;;
16878;SDS011;8556;52.218;9.884;2023-10-31T06:11:10;1.83;;;1.27;;
16878;SDS011;8556;52.218;9.884;2023-10-31T06:13:38;1.60;;;1.43;;
16878;SDS011;8556;52.218;9.884;2023-10-31T06:16:05;2.57;;;1.80;;
16878;SDS011;8556;52.218;9.884;2023-10-31T06:18:33;2.80;;;1.43;;
16878;SDS011;8556;52.218;9.884;2023-10-31T06:21:00;1.47;;;1.37;;
16878;SDS011;8556;52.218;9.884;2023-10-31T06:23:28;3.37;;;1.53;;
16878;SDS011;8556;52.218;9.884;2023-10-31T06:25:55;3.97;;;1.67;;
16878;SDS011;8556;52.218;9.884;2023-10-31T06:28:22;2.20;;;1.60;;
16878;SDS011;8556;52.218;9.884;2023-10-31T06:30:49;3.33;;;1.60;;
16878;SDS011;8556;52.218;9.884;2023-10-31T06:33:16;3.57;;;1.90;;
16878;SDS011;8556;52.218;9.884;2023-10-31T06:35:43;2.77;;;2.03;;
16878;SDS011;8556;52.218;9.884;2023-10-31T06:38:09;3.33;;;1.80;;
16878;SDS011;8556;52.218;9.884;2023-10-31T06:40:37;3.73;;;1.80;;
16878;SDS011;8556;52.218;9.884;2023-10-31T06:43:04;1.80;;;1.70;;
16878;SDS011;8556;52.218;9.884;2023-10-31T06:45:31;2.20;;;2.00;;
16878;SDS011;8556;52.218;9.884;2023-10-31T06:47:58;2.30;;;1.73;;
16878;SDS011;8556;52.218;9.884;2023-10-31T06:50:24;2.57;;;1.90;;
16878;SDS011;8556;52.218;9.884;2023-10-31T06:52:51;3.10;;;1.70;;
16878;SDS011;8556;52.218;9.884;2023-10-31T06:55:18;4.17;;;2.23;;
16878;SDS011;8556;52.218;9.884;2023-10-31T06:57:46;2.67;;;2.00;;
16878;SDS011;8556;52.218;9.884;2023-10-31T07:00:13;2.30;;;1.53;;
16878;SDS011;8556;52.218;9.884;2023-10-31T07:02:40;1.90;;;1.80;;
16878;SDS011;8556;52.218;9.884;2023-10-31T07:05:07;3.73;;;2.30;;
16878;SDS011;8556;52.218;9.884;2023-10-31T07:07:35;2.30;;;2.10;;
16878;SDS011;8556;52.218;9.884;2023-10-31T07:10:03;3.70;;;2.43;;
16878;SDS011;8556;52.218;9.884;2023-10-31T07:12:30;3.27;;;2.07;;
16878;SDS011;8556;52.218;9.884;2023-10-31T07:14:58;2.83;;;2.50;;
16878;SDS011;8556;52.218;9.884;2023-10-31T07:17:25;3.90;;;2.30;;
16878;SDS011;8556;52.218;9.884;2023-10-31T07:19:52;3.57;;;2.30;;
16878;SDS011;8556;52.218;9.884;2023-10-31T07:22:19;4.37;;;3.13;;
16878;SDS011;8556;52.218;9.884;2023-10-31T07:24:47;2.77;;;2.47;;
16878;SDS011;8556;52.218;9.884;2023-10-31T07:27:14;4.77;;;3.00;;
16878;SDS011;8556;52.218;9.884;2023-10-31T07:29:41;3.97;;;2.87;;
16878;SDS011;8556;52.218;9.884;2023-10-31T07:32:09;4.40;;;2.67;;
16878;SDS011;8556;52.218;9.884;2023-10-31T07:34:36;5.10;;;2.83;;
16878;SDS011;8556;52.218;9.884;2023-10-31T07:37:06;5.20;;;2.90;;
16878;SDS011;8556;52.218;9.884;2023-10-31T07:39:33;6.03;;;3.20;;
16878;SDS011;8556;52.218;9.884;2023-10-31T07:41:59;4.70;;;3.57;;
16878;SDS011;8556;52.218;9.884;2023-10-31T07:44:26;6.03;;;4.00;;
16878;SDS011;8556;52.218;9.884;2023-10-31T07:46:53;5.70;;;3.87;;
16878;SDS011;8556;52.218;9.884;2023-10-31T07:49:21;6.27;;;4.43;;
16878;SDS011;8556;52.218;9.884;2023-10-31T07:51:48;6.63;;;4.60;;
16878;SDS011;8556;52.218;9.884;2023-10-31T07:54:15;4.93;;;4.33;;
16878;SDS011;8556;52.218;9.884;2023-10-31T07:56:42;9.87;;;5.43;;
16878;SDS011;8556;52.218;9.884;2023-10-31T07:59:09;8.27;;;4.97;;
16878;SDS011;8556;52.218;9.884;2023-10-31T08:01:36;8.07;;;5.37;;
16878;SDS011;8556;52.218;9.884;2023-10-31T08:04:03;9.37;;;5.50;;
16878;SDS011;8556;52.218;9.884;2023-10-31T08:06:31;6.50;;;4.93;;
16878;SDS011;8556;52.218;9.884;2023-10-31T08:08:58;7.47;;;5.10;;
16878;SDS011;8556;52.218;9.884;2023-10-31T08:11:25;8.20;;;5.37;;
16878;SDS011;8556;52.218;9.884;2023-10-31T08:13:52;7.27;;;5.43;;
16878;SDS011;8556;52.218;9.884;2023-10-31T08:16:19;11.13;;;5.90;;
16878;SDS011;8556;52.218;9.884;2023-10-31T08:18:46;10.47;;;6.30;;
16878;SDS011;8556;52.218;9.884;2023-10-31T08:21:13;6.63;;;4.83;;
16878;SDS011;8556;52.218;9.884;2023-10-31T08:23:41;6.67;;;4.17;;
16878;SDS011;8556;52.218;9.884;2023-10-31T08:26:09;5.47;;;3.77;;
16878;SDS011;8556;52.218;9.884;2023-10-31T08:28:37;5.80;;;3.00;;
16878;SDS011;8556;52.218;9.884;2023-10-31T08:31:04;5.60;;;3.50;;
16878;SDS011;8556;52.218;9.884;2023-10-31T08:33:31;4.27;;;2.73;;
16878;SDS011;8556;52.218;9.884;2023-10-31T08:35:58;6.93;;;3.27;;
16878;SDS011;8556;52.218;9.884;2023-10-31T08:38:26;5.67;;;2.47;;
16878;SDS011;8556;52.218;9.884;2023-10-31T08:40:55;1.23;;;1.10;;
16878;SDS011;8556;52.218;9.884;2023-10-31T08:43:22;3.03;;;2.03;;
16878;SDS011;8556;52.218;9.884;2023-10-31T08:45:49;1.33;;;1.00;;
16878;SDS011;8556;52.218;9.884;2023-10-31T08:48:16;0.73;;;0.73;;
16878;SDS011;8556;52.218;9.884;2023-10-31T08:50:42;2.03;;;0.63;;
16878;SDS011;8556;52.218;9.884;2023-10-31T08:53:09;1.03;;;0.60;;
16878;SDS011;8556;52.218;9.884;2023-10-31T08:55:36;0.93;;;0.60;;
16878;SDS011;8556;52.218;9.884;2023-10-31T08:58:04;0.90;;;0.50;;
16878;SDS011;8556;52.218;9.884;2023-10-31T09:00:31;2.00;;;1.53;;
16878;SDS011;8556;52.218;9.884;2023-10-31T09:02:58;0.80;;;0.80;;
16878;SDS011;8556;52.218;9.884;2023-10-31T09:05:24;2.10;;;0.60;;
16878;SDS011;8556;52.218;9.884;2023-10-31T09:07:52;0.60;;;0.53;;
16878;SDS011;8556;52.218;9.884;2023-10-31T09:10:18;2.57;;;1.33;;
16878;SDS011;8556;52.218;9.884;2023-10-31T09:12:45;0.77;;;0.50;;
16878;SDS011;8556;52.218;9.884;2023-10-31T09:15:14;0.60;;;0.43;;
16878;SDS011;8556;52.218;9.884;2023-10-31T09:17:41;1.53;;;0.47;;
16878;SDS011;8556;52.218;9.884;2023-10-31T09:20:08;0.73;;;0.63;;
16878;SDS011;8556;52.218;9.884;2023-10-31T09:22:36;0.50;;;0.50;;
16878;SDS011;8556;52.218;9.884;2023-10-31T09:25:03;0.33;;;0.33;;
16878;SDS011;8556;52.218;9.884;2023-10-31T09:27:30;0.40;;;0.40;;
16878;SDS011;8556;52.218;9.884;2023-10-31T09:29:57;1.17;;;0.37;;
16878;SDS011;8556;52.218;9.884;2023-10-31T09:32:25;0.43;;;0.43;;
16878;SDS011;8556;52.218;9.884;2023-10-31T09:34:52;0.40;;;0.40;;
16878;SDS011;8556;52.218;9.884;2023-10-31T09:37:19;1.80;;;0.50;;
16878;SDS011;8556;52.218;9.884;2023-10-31T09:39:45;2.10;;;0.87;;
16878;SDS011;8556;52.218;9.884;2023-10-31T09:42:13;1.67;;;0.50;;
16878;SDS011;8556;52.218;9.884;2023-10-31T09:44:40;0.77;;;0.43;;
16878;SDS011;8556;52.218;9.884;2023-10-31T09:47:06;0.40;;;0.40;;
16878;SDS011;8556;52.218;9.884;2023-10-31T09:49:35;0.37;;;0.37;;
16878;SDS011;8556;52.218;9.884;2023-10-31T09:52:02;0.83;;;0.50;;
16878;SDS011;8556;52.218;9.884;2023-10-31T09:54:32;0.67;;;0.40;;
16878;SDS011;8556;52.218;9.884;2023-10-31T09:57:00;0.60;;;0.50;;
16878;SDS011;8556;52.218;9.884;2023-10-31T09:59:27;0.40;;;0.40;;
16878;SDS011;8556;52.218;9.884;2023-10-31T10:01:53;0.50;;;0.50;;
16878;SDS011;8556;52.218;9.884;2023-10-31T10:04:21;0.80;;;0.60;;
16878;SDS011;8556;52.218;9.884;2023-10-31T10:06:52;0.77;;;0.60;;
16878;SDS011;8556;52.218;9.884;2023-10-31T10:09:24;0.70;;;0.50;;
16878;SDS011;8556;52.218;9.884;2023-10-31T10:11:52;1.83;;;0.57;;
16878;SDS011;8556;52.218;9.884;2023-10-31T10:14:20;0.63;;;0.33;;
16878;SDS011;8556;52.218;9.884;2023-10-31T10:16:49;1.00;;;0.80;;
16878;SDS011;8556;52.218;9.884;2023-10-31T10:19:16;0.63;;;0.37;;
16878;SDS011;8556;52.218;9.884;2023-10-31T10:21:48;0.40;;;0.37;;
16878;SDS011;8556;52.218;9.884;2023-10-31T10:24:18;1.60;;;0.87;;
16878;SDS011;8556;52.218;9.884;2023-10-31T10:26:45;0.93;;;0.60;;
16878;SDS011;8556;52.218;9.884;2023-10-31T10:29:12;1.63;;;0.33;;
16878;SDS011;8556;52.218;9.884;2023-10-31T10:31:39;0.93;;;0.40;;
16878;SDS011;8556;52.218;9.884;2023-10-31T10:34:07;0.80;;;0.60;;
16878;SDS011;8556;52.218;9.884;2023-10-31T10:36:34;0.90;;;0.87;;
16878;SDS011;8556;52.218;9.884;2023-10-31T10:39:01;1.07;;;0.80;;
16878;SDS011;8556;52.218;9.884;2023-10-31T10:41:30;1.17;;;0.60;;
16878;SDS011;8556;52.218;9.884;2023-10-31T10:44:02;0.63;;;0.50;;
16878;SDS011;8556;52.218;9.884;2023-10-31T10:46:31;0.83;;;0.53;;
16878;SDS011;8556;52.218;9.884;2023-10-31T10:49:02;0.40;;;0.40;;
16878;SDS011;8556;52.218;9.884;2023-10-31T10:51:34;0.67;;;0.67;;
16878;SDS011;8556;52.218;9.884;2023-10-31T10:54:11;2.67;;;0.60;;
16878;SDS011;8556;52.218;9.884;2023-10-31T10:56:47;0.73;;;0.57;;
16878;SDS011;8556;52.218;9.884;2023-10-31T10:59:21;1.63;;;0.73;;
16878;SDS011;8556;52.218;9.884;2023-10-31T11:02:01;0.70;;;0.60;;
16878;SDS011;8556;52.218;9.884;2023-10-31T11:04:30;2.33;;;0.90;;
16878;SDS011;8556;52.218;9.884;2023-10-31T11:06:58;1.60;;;0.90;;
16878;SDS011;8556;52.218;9.884;2023-10-31T11:09:25;2.93;;;0.93;;
16878;SDS011;8556;52.218;9.884;2023-10-31T11:11:53;1.47;;;1.17;;
16878;SDS011;8556;52.218;9.884;2023-10-31T11:14:20;2.27;;;0.90;;
16878;SDS011;8556;52.218;9.884;2023-10-31T11:16:52;3.17;;;1.30;;
16878;SDS011;8556;52.218;9.884;2023-10-31T11:19:20;1.30;;;1.00;;
16878;SDS011;8556;52.218;9.884;2023-10-31T11:21:53;1.30;;;1.20;;
16878;SDS011;8556;52.218;9.884;2023-10-31T11:24:20;2.93;;;1.20;;
16878;SDS011;8556;52.218;9.884;2023-10-31T11:26:53;2.60;;;1.57;;
16878;SDS011;8556;52.218;9.884;2023-10-31T11:29:25;2.53;;;1.67;;
16878;SDS011;8556;52.218;9.884;2023-10-31T11:31:53;3.63;;;1.60;;
16878;SDS011;8556;52.218;9.884;2023-10-31T11:34:20;1.33;;;1.17;;
16878;SDS011;8556;52.218;9.884;2023-10-31T11:36:47;2.50;;;1.80;;
16878;SDS011;8556;52.218;9.884;2023-10-31T11:39:15;3.03;;;2.30;;
16878;SDS011;8556;52.218;9.884;2023-10-31T11:41:46;2.90;;;1.70;;
16878;SDS011;8556;52.218;9.884;2023-10-31T11:44:17;2.80;;;2.10;;
16878;SDS011;8556;52.218;9.884;2023-10-31T11:46:43;2.87;;;2.30;;
16878;SDS011;8556;52.218;9.884;2023-10-31T11:49:15;2.47;;;2.10;;
16878;SDS011;8556;52.218;9.884;2023-10-31T11:51:44;2.67;;;1.90;;
16878;SDS011;8556;52.218;9.884;2023-10-31T11:54:12;2.20;;;1.87;;
16878;SDS011;8556;52.218;9.884;2023-10-31T11:56:39;5.60;;;2.10;;
16878;SDS011;8556;52.218;9.884;2023-10-31T11:59:06;3.17;;;2.07;;
16878;SDS011;8556;52.218;9.884;2023-10-31T12:01:34;2.40;;;2.20;;
16878;SDS011;8556;52.218;9.884;2023-10-31T12:04:20;4.93;;;2.47;;
16878;SDS011;8556;52.218;9.884;2023-10-31T12:06:56;2.80;;;2.50;;
16878;SDS011;8556;52.218;9.884;2023-10-31T12:09:23;3.07;;;2.33;;
16878;SDS011;8556;52.218;9.884;2023-10-31T12:11:50;2.90;;;2.20;;
16878;SDS011;8556;52.218;9.884;2023-10-31T12:14:18;3.57;;;2.50;;
16878;SDS011;8556;52.218;9.884;2023-10-31T12:16:47;3.38;;;2.25;;
16878;SDS011;8556;52.218;9.884;2023-10-31T12:19:14;2.92;;;2.10;;
16878;SDS011;8556;52.218;9.884;2023-10-31T12:21:41;2.72;;;2.53;;
16878;SDS011;8556;52.218;9.884;2023-10-31T12:24:12;5.30;;;2.43;;
16878;SDS011;8556;52.218;9.884;2023-10-31T12:26:40;5.23;;;2.70;;
16878;SDS011;8556;52.218;9.884;2023-10-31T12:29:08;3.30;;;2.70;;
16878;SDS011;8556;52.218;9.884;2023-10-31T12:31:39;5.10;;;2.97;;
16878;SDS011;8556;52.218;9.884;2023-10-31T12:34:08;3.33;;;2.83;;
16878;SDS011;8556;52.218;9.884;2023-10-31T12:36:35;4.03;;;3.43;;
16878;SDS011;8556;52.218;9.884;2023-10-31T12:39:02;4.73;;;3.57;;
16878;SDS011;8556;52.218;9.884;2023-10-31T12:41:31;3.93;;;3.30;;
16878;SDS011;8556;52.218;9.884;2023-10-31T12:43:58;6.90;;;3.93;;
16878;SDS011;8556;52.218;9.884;2023-10-31T12:46:28;4.93;;;3.80;;
16878;SDS011;8556;52.218;9.884;2023-10-31T12:48:55;5.00;;;3.50;;
16878;SDS011;8556;52.218;9.884;2023-10-31T12:51:24;4.30;;;3.50;;
16878;SDS011;8556;52.218;9.884;2023-10-31T12:53:51;4.77;;;3.40;;
16878;SDS011;8556;52.218;9.884;2023-10-31T12:56:34;3.47;;;2.90;;
16878;SDS011;8556;52.218;9.884;2023-10-31T12:59:04;5.47;;;3.23;;
16878;SDS011;8556;52.218;9.884;2023-10-31T13:01:33;4.87;;;3.33;;
16878;SDS011;8556;52.218;9.884;2023-10-31T13:04:00;3.43;;;3.00;;
16878;SDS011;8556;52.218;9.884;2023-10-31T13:06:28;3.65;;;3.03;;
16878;SDS011;8556;52.218;9.884;2023-10-31T13:08:55;3.00;;;2.60;;
16878;SDS011;8556;52.218;9.884;2023-10-31T13:11:22;2.78;;;2.33;;
16878;SDS011;8556;52.218;9.884;2023-10-31T13:13:51;2.60;;;2.40;;
16878;SDS011;8556;52.218;9.884;2023-10-31T13:16:18;2.60;;;2.40;;
16878;SDS011;8556;52.218;9.884;2023-10-31T13:18:45;3.17;;;2.70;;
16878;SDS011;8556;52.218;9.884;2023-10-31T13:21:12;4.50;;;2.90;;
16878;SDS011;8556;52.218;9.884;2023-10-31T13:23:41;2.95;;;2.33;;
16878;SDS011;8556;52.218;9.884;2023-10-31T13:26:10;3.53;;;2.72;;
16878;SDS011;8556;52.218;9.884;2023-10-31T13:28:37;3.72;;;2.80;;
16878;SDS011;8556;52.218;9.884;2023-10-31T13:31:04;3.40;;;2.53;;
16878;SDS011;8556;52.218;9.884;2023-10-31T13:33:31;3.53;;;2.53;;
16878;SDS011;8556;52.218;9.884;2023-10-31T13:35:58;2.85;;;2.42;;
16878;SDS011;8556;52.218;9.884;2023-10-31T13:38:25;2.67;;;2.45;;
16878;SDS011;8556;52.218;9.884;2023-10-31T13:40:53;2.67;;;2.38;;
16878;SDS011;8556;52.218;9.884;2023-10-31T13:43:20;3.27;;;2.80;;
16878;SDS011;8556;52.218;9.884;2023-10-31T13:45:47;3.58;;;2.92;;
16878;SDS011;8556;52.218;9.884;2023-10-31T13:48:14;3.72;;;2.70;;
16878;SDS011;8556;52.218;9.884;2023-10-31T13:50:41;3.15;;;2.53;;
16878;SDS011;8556;52.218;9.884;2023-10-31T13:53:08;3.17;;;2.65;;
16878;SDS011;8556;52.218;9.884;2023-10-31T13:55:35;2.80;;;2.30;;
16878;SDS011;8556;52.218;9.884;2023-10-31T13:58:03;3.63;;;3.00;;
16878;SDS011;8556;52.218;9.884;2023-10-31T14:00:30;4.47;;;2.60;;
16878;SDS011;8556;52.218;9.884;2023-10-31T14:02:57;4.60;;;2.90;;
16878;SDS011;8556;52.218;9.884;2023-10-31T14:05:24;3.40;;;2.63;;
16878;SDS011;8556;52.218;9.884;2023-10-31T14:07:51;3.15;;;2.83;;
16878;SDS011;8556;52.218;9.884;2023-10-31T14:10:19;2.92;;;2.67;;
16878;SDS011;8556;52.218;9.884;2023-10-31T14:12:46;3.72;;;2.70;;
16878;SDS011;8556;52.218;9.884;2023-10-31T14:15:14;3.90;;;3.13;;
16878;SDS011;8556;52.218;9.884;2023-10-31T14:17:41;3.23;;;2.90;;
16878;SDS011;8556;52.218;9.884;2023-10-31T14:20:08;2.90;;;2.60;;
16878;SDS011;8556;52.218;9.884;2023-10-31T14:22:36;2.78;;;2.53;;
16878;SDS011;8556;52.218;9.884;2023-10-31T14:25:03;3.10;;;2.80;;
16878;SDS011;8556;52.218;9.884;2023-10-31T14:27:32;3.33;;;2.83;;
16878;SDS011;8556;52.218;9.884;2023-10-31T14:29:59;4.23;;;2.77;;
16878;SDS011;8556;52.218;9.884;2023-10-31T14:32:27;4.20;;;3.00;;
16878;SDS011;8556;52.218;9.884;2023-10-31T14:34:54;4.97;;;2.90;;
16878;SDS011;8556;52.218;9.884;2023-10-31T14:37:21;3.70;;;2.97;;
16878;SDS011;8556;52.218;9.884;2023-10-31T14:39:48;4.83;;;2.77;;
16878;SDS011;8556;52.218;9.884;2023-10-31T14:42:15;3.30;;;2.70;;
16878;SDS011;8556;52.218;9.884;2023-10-31T14:44:42;3.03;;;2.73;;
16878;SDS011;8556;52.218;9.884;2023-10-31T14:47:09;3.47;;;3.00;;
16878;SDS011;8556;52.218;9.884;2023-10-31T14:49:37;3.10;;;2.63;;
16878;SDS011;8556;52.218;9.884;2023-10-31T14:52:04;3.10;;;2.80;;
16878;SDS011;8556;52.218;9.884;2023-10-31T14:54:33;6.03;;;3.40;;
16878;SDS011;8556;52.218;9.884;2023-10-31T14:57:00;4.73;;;2.97;;
16878;SDS011;8556;52.218;9.884;2023-10-31T14:59:27;5.97;;;3.80;;
16878;SDS011;8556;52.218;9.884;2023-10-31T15:01:54;4.37;;;3.67;;